createdAt,value
2019-06-26T00:00:19.637Z,24.62
2019-06-26T00:02:46.532Z,24.56
2019-06-26T00:05:13.554Z,24.53
2019-06-26T00:07:40.329Z,24.49
2019-06-26T00:10:07.111Z,24.43
2019-06-26T00:12:34.016Z,24.39
2019-06-26T00:15:01.987Z,24.38
2019-06-26T00:17:28.947Z,24.33
2019-06-26T00:19:56.883Z,24.32
2019-06-26T00:22:23.560Z,24.30
2019-06-26T00:24:50.356Z,24.26
2019-06-26T00:27:17.178Z,24.24
2019-06-26T00:29:44.847Z,24.23
2019-06-26T00:32:11.615Z,24.19
2019-06-26T00:34:38.801Z,24.16
2019-06-26T00:37:05.526Z,24.15
2019-06-26T00:39:32.217Z,24.12
2019-06-26T00:41:59.005Z,24.08
2019-06-26T00:44:25.683Z,24.08
2019-06-26T00:46:52.463Z,24.04
2019-06-26T00:49:19.252Z,24.00
2019-06-26T00:51:45.928Z,23.98
2019-06-26T00:54:12.596Z,23.95
2019-06-26T00:56:39.372Z,23.87
2019-06-26T00:59:06.130Z,23.87
2019-06-26T01:01:32.803Z,23.86
2019-06-26T01:04:03.876Z,23.83
2019-06-26T01:06:42.141Z,23.82
2019-06-26T01:09:08.833Z,23.77
2019-06-26T01:11:35.648Z,23.68
2019-06-26T01:14:02.520Z,23.67
2019-06-26T01:16:30.288Z,23.58
2019-06-26T01:18:58.179Z,23.51
2019-06-26T01:21:25.191Z,23.42
2019-06-26T01:23:51.869Z,23.38
2019-06-26T01:26:36.782Z,23.32
2019-06-26T01:29:03.849Z,23.35
2019-06-26T01:31:30.570Z,23.31
2019-06-26T01:33:57.377Z,23.28
2019-06-26T01:36:24.007Z,23.24
2019-06-26T01:38:50.914Z,23.25
2019-06-26T01:41:17.718Z,23.25
2019-06-26T01:43:44.495Z,23.23
2019-06-26T01:46:11.338Z,23.21
2019-06-26T01:48:38.039Z,23.19
2019-06-26T01:51:04.831Z,23.17
2019-06-26T01:53:31.621Z,23.14
2019-06-26T01:55:58.416Z,23.17
2019-06-26T01:58:25.090Z,23.13
2019-06-26T02:00:51.788Z,23.12
2019-06-26T02:03:18.499Z,23.06
2019-06-26T02:05:45.175Z,23.08
2019-06-26T02:08:11.841Z,23.02
2019-06-26T02:10:38.657Z,23.03
2019-06-26T02:13:05.353Z,23.03
2019-06-26T02:15:32.007Z,23.01
2019-06-26T02:17:58.995Z,22.93
2019-06-26T02:20:26.777Z,22.92
2019-06-26T02:22:53.475Z,22.84
2019-06-26T02:25:20.233Z,22.83
2019-06-26T02:27:47.031Z,22.77
2019-06-26T02:30:14.011Z,22.82
2019-06-26T02:32:40.671Z,22.75
2019-06-26T02:35:09.784Z,22.72
2019-06-26T02:37:36.176Z,22.72
2019-06-26T02:40:03.636Z,22.69
2019-06-26T02:42:30.302Z,22.70
2019-06-26T02:44:57.076Z,22.64
2019-06-26T02:47:24.864Z,22.61
2019-06-26T02:49:51.552Z,22.57
2019-06-26T02:52:18.337Z,22.57
2019-06-26T02:54:45.058Z,22.56
2019-06-26T02:57:11.738Z,22.55
2019-06-26T02:59:38.418Z,22.59
2019-06-26T03:02:05.228Z,22.63
2019-06-26T03:04:31.870Z,22.69
2019-06-26T03:06:58.601Z,22.64
2019-06-26T03:09:26.057Z,22.61
2019-06-26T03:11:52.847Z,22.62
2019-06-26T03:14:19.546Z,22.61
2019-06-26T03:16:46.222Z,22.61
2019-06-26T03:19:13.996Z,22.61
2019-06-26T03:21:40.680Z,22.57
2019-06-26T03:24:07.470Z,22.56
2019-06-26T03:26:34.136Z,22.62
2019-06-26T03:29:01.074Z,22.62
2019-06-26T03:31:27.757Z,22.63
2019-06-26T03:33:54.463Z,22.59
2019-06-26T03:36:21.261Z,22.59
2019-06-26T03:38:47.951Z,22.59
2019-06-26T03:41:14.623Z,22.61
2019-06-26T03:43:41.342Z,22.60
2019-06-26T03:46:08.249Z,22.61
2019-06-26T03:48:35.023Z,22.66
2019-06-26T03:51:01.722Z,22.58
2019-06-26T03:53:28.403Z,22.47
2019-06-26T03:55:55.089Z,22.50
2019-06-26T03:58:21.867Z,22.52
2019-06-26T04:00:48.543Z,22.56
2019-06-26T04:03:15.451Z,22.52
2019-06-26T04:05:43.125Z,22.54
2019-06-26T04:08:09.860Z,22.50
2019-06-26T04:10:36.685Z,22.51
2019-06-26T04:13:03.790Z,22.47
2019-06-26T04:15:41.527Z,22.49
2019-06-26T04:17:59.163Z,22.52
2019-06-26T04:20:25.940Z,22.62
2019-06-26T04:22:52.815Z,22.60
2019-06-26T04:25:19.589Z,22.67
2019-06-26T04:27:46.394Z,22.68
2019-06-26T04:30:13.471Z,22.70
2019-06-26T04:32:40.276Z,22.77
2019-06-26T04:35:07.977Z,22.85
2019-06-26T04:37:34.786Z,22.89
2019-06-26T04:40:01.623Z,22.95
2019-06-26T04:42:28.604Z,23.01
2019-06-26T04:44:55.306Z,23.07
2019-06-26T04:47:22.001Z,23.13
2019-06-26T04:49:48.680Z,23.19
2019-06-26T04:52:15.355Z,23.24
2019-06-26T04:54:42.029Z,23.30
2019-06-26T04:57:08.802Z,23.36
2019-06-26T04:59:35.470Z,23.40
2019-06-26T05:02:02.347Z,23.50
2019-06-26T05:04:29.133Z,23.58
2019-06-26T05:06:55.925Z,23.65
2019-06-26T05:09:22.640Z,23.73
2019-06-26T05:11:49.438Z,23.79
2019-06-26T05:14:16.122Z,23.89
2019-06-26T05:16:42.786Z,23.96
2019-06-26T05:19:09.593Z,24.05
2019-06-26T05:21:36.392Z,24.14
2019-06-26T05:24:03.178Z,24.23
2019-06-26T05:26:29.986Z,24.30
2019-06-26T05:28:56.682Z,24.38
2019-06-26T05:31:23.475Z,24.44
2019-06-26T05:33:50.223Z,24.52
2019-06-26T05:36:16.879Z,24.63
2019-06-26T05:38:44.571Z,24.74
2019-06-26T05:41:11.421Z,24.84
2019-06-26T05:43:38.192Z,24.95
2019-06-26T05:46:05.002Z,25.04
2019-06-26T05:48:31.699Z,25.18
2019-06-26T05:50:58.385Z,25.26
2019-06-26T05:53:25.187Z,25.32
2019-06-26T05:55:51.995Z,25.35
2019-06-26T05:58:18.767Z,25.47
2019-06-26T06:00:46.389Z,25.50
2019-06-26T06:03:13.418Z,25.50
2019-06-26T06:05:40.190Z,25.49
2019-06-26T06:08:06.970Z,25.50
2019-06-26T06:10:33.656Z,25.57
2019-06-26T06:13:00.498Z,25.52
2019-06-26T06:15:27.191Z,25.49
2019-06-26T06:17:54.009Z,25.48
2019-06-26T06:20:29.333Z,25.50
2019-06-26T06:22:56.133Z,25.62
2019-06-26T06:25:22.908Z,25.73
2019-06-26T06:27:49.707Z,25.76
2019-06-26T06:30:16.491Z,25.78
2019-06-26T06:32:43.220Z,25.79
2019-06-26T06:35:10.420Z,25.91
2019-06-26T06:37:37.125Z,25.89
2019-06-26T06:40:04.386Z,25.87
2019-06-26T06:42:31.169Z,25.86
2019-06-26T06:44:58.021Z,25.84
2019-06-26T06:47:24.695Z,25.81
2019-06-26T06:49:51.824Z,25.75
2019-06-26T06:52:18.933Z,25.88
2019-06-26T06:54:45.974Z,25.91
2019-06-26T06:57:12.762Z,25.90
2019-06-26T06:59:39.449Z,25.81
2019-06-26T07:02:06.257Z,25.84
2019-06-26T07:04:32.902Z,25.96
2019-06-26T07:06:59.594Z,26.06
2019-06-26T07:09:26.390Z,26.08
2019-06-26T07:11:53.212Z,26.07
2019-06-26T07:14:19.895Z,26.05
2019-06-26T07:16:46.739Z,26.11
2019-06-26T07:19:13.413Z,26.15
2019-06-26T07:21:40.083Z,26.27
2019-06-26T07:24:06.911Z,26.36
2019-06-26T07:26:33.741Z,26.45
2019-06-26T07:29:00.515Z,26.51
2019-06-26T07:31:27.199Z,26.56
2019-06-26T07:33:55.693Z,26.69
2019-06-26T07:36:22.503Z,26.76
2019-06-26T07:38:49.231Z,26.70
2019-06-26T07:41:16.005Z,26.83
2019-06-26T07:43:42.658Z,26.89
2019-06-26T07:46:10.432Z,26.89
2019-06-26T07:48:37.167Z,26.91
2019-06-26T07:51:03.910Z,26.94
2019-06-26T07:53:30.722Z,26.98
2019-06-26T07:55:57.391Z,26.94
2019-06-26T07:58:24.258Z,26.95
2019-06-26T08:00:50.956Z,27.06
2019-06-26T08:03:17.677Z,26.99
2019-06-26T08:05:44.357Z,27.00
2019-06-26T08:08:14.590Z,27.13
2019-06-26T08:10:40.031Z,27.22
2019-06-26T08:13:06.716Z,27.21
2019-06-26T08:15:33.510Z,27.14
2019-06-26T08:18:01.466Z,27.17
2019-06-26T08:20:28.455Z,27.29
2019-06-26T08:22:55.212Z,27.29
2019-06-26T08:25:22.455Z,27.41
2019-06-26T08:27:49.115Z,27.40
2019-06-26T08:30:17.002Z,27.34
2019-06-26T08:32:43.705Z,27.40
2019-06-26T08:35:10.580Z,27.58
2019-06-26T08:37:37.346Z,27.65
2019-06-26T08:40:04.189Z,27.55
2019-06-26T08:42:30.857Z,27.70
2019-06-26T08:44:57.506Z,27.77
2019-06-26T08:47:24.181Z,27.85
2019-06-26T08:49:50.888Z,27.86
2019-06-26T08:52:17.810Z,27.98
2019-06-26T08:54:44.603Z,27.84
2019-06-26T08:57:11.426Z,27.93
2019-06-26T08:59:38.211Z,27.97
2019-06-26T09:02:04.883Z,28.15
2019-06-26T09:04:31.574Z,28.01
2019-06-26T09:06:58.230Z,27.92
2019-06-26T09:09:24.910Z,27.80
2019-06-26T09:11:51.657Z,27.93
2019-06-26T09:14:18.331Z,28.10
2019-06-26T09:16:45.020Z,28.09
2019-06-26T09:19:11.729Z,27.97
2019-06-26T09:21:38.428Z,27.82
2019-06-26T09:24:05.174Z,27.81
2019-06-26T09:26:31.876Z,28.00
2019-06-26T09:28:58.570Z,27.97
2019-06-26T09:31:25.246Z,27.75
2019-06-26T09:33:51.934Z,27.94
2019-06-26T09:36:18.626Z,28.14
2019-06-26T09:38:45.304Z,28.22
2019-06-26T09:41:12.208Z,28.25
2019-06-26T09:43:38.881Z,28.26
2019-06-26T09:46:05.758Z,27.97
2019-06-26T09:48:32.596Z,28.19
2019-06-26T09:50:59.362Z,28.23
2019-06-26T09:53:26.051Z,28.49
2019-06-26T09:55:52.846Z,28.40
2019-06-26T09:58:19.626Z,28.30
2019-06-26T10:00:46.329Z,28.19
2019-06-26T10:03:13.030Z,28.06
2019-06-26T10:05:40.368Z,28.24
2019-06-26T10:08:07.043Z,28.26
2019-06-26T10:10:34.727Z,28.13
2019-06-26T10:13:01.386Z,27.79
2019-06-26T10:15:28.066Z,27.72
2019-06-26T10:17:54.860Z,27.49
2019-06-26T10:20:21.521Z,27.44
2019-06-26T10:22:48.292Z,27.64
2019-06-26T10:25:15.348Z,27.76
2019-06-26T10:27:42.206Z,27.74
2019-06-26T10:30:09.202Z,27.84
2019-06-26T10:32:36.031Z,27.53
2019-06-26T10:35:03.646Z,27.64
2019-06-26T10:37:30.453Z,27.70
2019-06-26T10:39:57.137Z,27.35
2019-06-26T10:42:23.799Z,27.50
2019-06-26T10:44:50.590Z,27.55
2019-06-26T10:47:17.430Z,27.58
2019-06-26T10:49:44.206Z,27.81
2019-06-26T10:52:10.935Z,27.83
2019-06-26T10:54:37.688Z,28.08
2019-06-26T10:57:04.578Z,28.14
2019-06-26T10:59:31.374Z,28.08
2019-06-26T11:01:58.212Z,27.83
2019-06-26T11:04:25.043Z,27.88
2019-06-26T11:06:51.787Z,27.91
2019-06-26T11:09:18.573Z,27.96
2019-06-26T11:11:45.247Z,27.48
2019-06-26T11:14:11.939Z,27.39
2019-06-26T11:16:38.698Z,27.83
2019-06-26T11:19:05.472Z,27.71
2019-06-26T11:21:32.153Z,27.25
2019-06-26T11:23:58.950Z,27.42
2019-06-26T11:26:25.711Z,27.31
2019-06-26T11:28:52.380Z,27.37
2019-06-26T11:31:19.187Z,27.72
2019-06-26T11:33:45.843Z,27.76
2019-06-26T11:36:12.658Z,27.84
2019-06-26T11:38:40.552Z,27.53
2019-06-26T11:41:08.331Z,27.48
2019-06-26T11:43:35.030Z,27.13
2019-06-26T11:46:01.788Z,27.31
2019-06-26T11:48:28.535Z,27.17
2019-06-26T11:50:55.219Z,27.17
2019-06-26T11:53:21.903Z,27.32
2019-06-26T11:55:48.714Z,27.00
2019-06-26T11:58:15.409Z,26.99
2019-06-26T12:00:42.160Z,27.18
2019-06-26T12:03:08.854Z,27.34
2019-06-26T12:05:35.643Z,27.14
2019-06-26T12:08:02.361Z,27.11
2019-06-26T12:10:29.054Z,26.89
2019-06-26T12:12:55.886Z,26.95
2019-06-26T12:15:23.226Z,27.11
2019-06-26T12:17:50.007Z,27.29
2019-06-26T12:20:19.815Z,27.37
2019-06-26T12:22:46.803Z,27.15
2019-06-26T12:25:14.894Z,27.23
2019-06-26T12:27:41.697Z,27.46
2019-06-26T12:30:10.369Z,27.49
2019-06-26T12:32:42.364Z,27.38
2019-06-26T12:35:07.578Z,27.17
2019-06-26T12:37:37.905Z,27.24
2019-06-26T12:40:03.667Z,27.28
2019-06-26T12:42:30.359Z,27.38
2019-06-26T12:44:57.038Z,27.33
2019-06-26T12:47:23.695Z,27.34
2019-06-26T12:49:50.377Z,27.36
2019-06-26T12:52:17.252Z,27.29
2019-06-26T12:54:44.247Z,27.50
2019-06-26T12:57:10.957Z,27.05
2019-06-26T12:59:37.615Z,27.25
2019-06-26T13:02:05.486Z,27.52
2019-06-26T13:04:32.268Z,27.68
2019-06-26T13:06:59.204Z,27.07
2019-06-26T13:09:25.818Z,27.07
2019-06-26T13:11:52.711Z,26.95
2019-06-26T13:14:19.488Z,27.11
2019-06-26T13:16:46.155Z,26.71
2019-06-26T13:19:12.836Z,26.93
2019-06-26T13:21:39.517Z,26.72
2019-06-26T13:24:06.163Z,26.70
2019-06-26T13:26:32.858Z,26.94
2019-06-26T13:28:59.543Z,27.30
2019-06-26T13:31:26.421Z,26.88
2019-06-26T13:33:53.119Z,26.63
2019-06-26T13:36:19.814Z,26.68
2019-06-26T13:38:46.593Z,26.90
2019-06-26T13:41:13.260Z,26.80
2019-06-26T13:43:40.042Z,26.52
2019-06-26T13:46:06.688Z,26.74
2019-06-26T13:48:33.421Z,26.74
2019-06-26T13:51:09.483Z,26.56
2019-06-26T13:53:28.678Z,26.78
2019-06-26T13:55:55.367Z,27.26
2019-06-26T13:58:22.062Z,27.20
2019-06-26T14:00:48.739Z,27.23
2019-06-26T14:03:15.467Z,27.32
2019-06-26T14:05:42.334Z,27.45
2019-06-26T14:08:09.051Z,27.31
2019-06-26T14:10:35.815Z,27.25
2019-06-26T14:13:02.627Z,27.48
2019-06-26T14:15:29.436Z,27.40
2019-06-26T14:17:56.146Z,27.59
2019-06-26T14:20:23.012Z,27.29
2019-06-26T14:22:49.792Z,26.75
2019-06-26T14:25:16.688Z,26.78
2019-06-26T14:27:43.367Z,26.74
2019-06-26T14:30:11.631Z,27.12
2019-06-26T14:32:38.301Z,26.77
2019-06-26T14:35:05.513Z,26.75
2019-06-26T14:37:32.199Z,26.69
2019-06-26T14:39:59.082Z,26.94
2019-06-26T14:42:25.782Z,26.88
2019-06-26T14:44:52.902Z,26.66
2019-06-26T14:47:19.813Z,26.69
2019-06-26T14:49:46.495Z,26.64
2019-06-26T14:52:13.183Z,26.34
2019-06-26T14:54:39.827Z,26.31
2019-06-26T14:57:06.516Z,26.42
2019-06-26T14:59:33.230Z,25.90
2019-06-26T15:01:59.917Z,25.77
2019-06-26T15:04:26.699Z,25.78
2019-06-26T15:06:53.432Z,25.85
2019-06-26T15:09:20.092Z,25.51
2019-06-26T15:11:46.862Z,25.28
2019-06-26T15:14:13.525Z,25.52
2019-06-26T15:16:40.443Z,25.36
2019-06-26T15:19:07.120Z,25.01
2019-06-26T15:21:33.902Z,24.81
2019-06-26T15:24:00.586Z,24.95
2019-06-26T15:26:27.278Z,24.91
2019-06-26T15:28:55.071Z,24.77
2019-06-26T15:31:21.729Z,24.55
2019-06-26T15:33:48.414Z,24.42
2019-06-26T15:36:15.163Z,24.20
2019-06-26T15:38:41.958Z,24.38
2019-06-26T15:41:08.630Z,24.28
2019-06-26T15:43:35.315Z,24.31
2019-06-26T15:46:02.122Z,24.35
2019-06-26T15:48:28.863Z,24.40
2019-06-26T15:50:55.552Z,24.51
2019-06-26T15:53:22.345Z,24.51
2019-06-26T15:55:49.118Z,24.46
2019-06-26T15:58:15.838Z,24.61
2019-06-26T16:00:42.814Z,24.81
2019-06-26T16:03:09.518Z,24.43
2019-06-26T16:05:36.224Z,24.42
2019-06-26T16:08:02.942Z,23.46
2019-06-26T16:10:29.619Z,23.39
2019-06-26T16:12:56.403Z,23.47
2019-06-26T16:15:23.204Z,23.54
2019-06-26T16:18:04.362Z,23.32
2019-06-26T16:20:31.186Z,23.27
2019-06-26T16:22:57.852Z,22.99
2019-06-26T16:25:24.639Z,23.17
2019-06-26T16:28:04.724Z,23.05
2019-06-26T16:30:21.106Z,22.95
2019-06-26T16:32:47.775Z,22.58
2019-06-26T16:35:14.577Z,22.49
2019-06-26T16:37:41.274Z,22.37
2019-06-26T16:40:08.075Z,22.22
2019-06-26T16:42:34.749Z,22.06
2019-06-26T16:45:01.486Z,21.97
2019-06-26T16:47:28.327Z,22.14
2019-06-26T16:49:55.104Z,22.22
2019-06-26T16:52:22.039Z,22.11
2019-06-26T16:54:48.701Z,21.75
2019-06-26T16:57:15.492Z,21.80
2019-06-26T16:59:42.199Z,21.73
2019-06-26T17:02:08.968Z,21.73
2019-06-26T17:04:35.698Z,21.70
2019-06-26T17:07:02.482Z,21.55
2019-06-26T17:09:29.244Z,21.33
2019-06-26T17:11:56.128Z,21.29
2019-06-26T17:14:22.846Z,21.23
2019-06-26T17:16:49.595Z,21.16
2019-06-26T17:19:16.403Z,21.09
2019-06-26T17:21:43.373Z,21.11
2019-06-26T17:24:10.190Z,21.03
2019-06-26T17:26:36.893Z,21.03
2019-06-26T17:29:03.663Z,21.01
2019-06-26T17:31:31.336Z,20.96
2019-06-26T17:33:58.503Z,20.96
2019-06-26T17:36:28.693Z,20.59
2019-06-26T17:38:53.768Z,20.54
2019-06-26T17:41:20.439Z,20.47
2019-06-26T17:43:47.243Z,20.48
2019-06-26T17:46:14.130Z,20.43
2019-06-26T17:48:40.750Z,20.39
2019-06-26T17:51:07.551Z,20.12
2019-06-26T17:53:34.333Z,20.09
2019-06-26T17:56:01.047Z,20.01
2019-06-26T17:58:27.889Z,19.99
2019-06-26T18:01:54.282Z,19.91
2019-06-26T18:04:20.950Z,19.75
2019-06-26T18:06:55.996Z,19.76
2019-06-26T18:09:22.716Z,19.78
2019-06-26T18:11:49.368Z,19.73
2019-06-26T18:14:16.244Z,19.67
2019-06-26T18:16:42.933Z,19.46
2019-06-26T18:19:09.597Z,19.52
2019-06-26T18:21:36.405Z,19.38
2019-06-26T18:24:03.229Z,19.39
2019-06-26T18:26:30.003Z,19.31
2019-06-26T18:28:56.813Z,19.14
2019-06-26T18:31:23.532Z,19.11
2019-06-26T18:33:50.218Z,19.20
2019-06-26T18:36:16.908Z,19.18
2019-06-26T18:38:43.603Z,18.98
2019-06-26T18:41:10.304Z,19.21
2019-06-26T18:43:36.998Z,19.12
2019-06-26T18:46:03.897Z,18.95
2019-06-26T18:48:30.638Z,18.76
2019-06-26T18:50:57.279Z,18.71
2019-06-26T18:53:23.963Z,18.72
2019-06-26T18:55:50.760Z,18.60
2019-06-26T18:58:17.637Z,18.60
2019-06-26T19:00:44.511Z,18.57
2019-06-26T19:03:11.226Z,18.45
2019-06-26T19:05:37.991Z,18.43
2019-06-26T19:08:05.095Z,18.37
2019-06-26T19:10:31.784Z,18.31
2019-06-26T19:12:58.873Z,18.23
2019-06-26T19:15:25.562Z,18.21
2019-06-26T19:17:52.276Z,18.25
2019-06-26T19:20:19.272Z,18.27
2019-06-26T19:22:47.528Z,18.25
2019-06-26T19:25:14.650Z,18.19
2019-06-26T19:27:41.315Z,18.27
2019-06-26T19:30:08.738Z,18.19
2019-06-26T19:32:37.564Z,18.20
2019-06-26T19:35:17.797Z,18.00
2019-06-26T19:37:33.561Z,17.97
2019-06-26T19:40:00.466Z,18.10
2019-06-26T19:42:27.796Z,18.14
2019-06-26T19:44:54.572Z,17.99
2019-06-26T19:47:22.463Z,17.94
2019-06-26T19:49:49.336Z,17.84
2019-06-26T19:52:16.133Z,17.86
2019-06-26T19:54:43.346Z,17.86
2019-06-26T19:57:10.053Z,17.77
2019-06-26T19:59:36.737Z,17.72
2019-06-26T20:02:04.035Z,17.66
2019-06-26T20:04:30.830Z,17.65
2019-06-26T20:06:57.514Z,17.85
2019-06-26T20:09:24.323Z,17.68
2019-06-26T20:11:51.088Z,17.64
2019-06-26T20:14:17.766Z,17.53
2019-06-26T20:16:44.458Z,17.44
2019-06-26T20:19:11.178Z,17.46
2019-06-26T20:21:38.148Z,17.38
2019-06-26T20:24:05.212Z,17.24
2019-06-26T20:26:31.975Z,17.19
2019-06-26T20:28:59.140Z,17.25
2019-06-26T20:31:26.263Z,17.22
2019-06-26T20:33:53.062Z,17.18
2019-06-26T20:36:19.748Z,17.16
2019-06-26T20:38:47.984Z,17.22
2019-06-26T20:41:14.922Z,17.16
2019-06-26T20:43:42.108Z,17.09
2019-06-26T20:46:09.399Z,17.04
2019-06-26T20:48:36.298Z,17.00
2019-06-26T20:51:03.232Z,17.03
2019-06-26T20:53:29.888Z,17.04
2019-06-26T20:55:56.737Z,17.07
2019-06-26T20:58:23.463Z,16.97
2019-06-26T21:00:50.325Z,16.92
2019-06-26T21:03:17.174Z,16.95
2019-06-26T21:05:43.886Z,16.94
2019-06-26T21:08:10.716Z,16.88
2019-06-26T21:10:37.586Z,16.91
2019-06-26T21:13:04.351Z,16.81
2019-06-26T21:15:31.201Z,16.83
2019-06-26T21:17:58.027Z,16.75
2019-06-26T21:20:24.838Z,16.83
2019-06-26T21:22:51.772Z,16.73
2019-06-26T21:25:19.782Z,16.72
2019-06-26T21:27:47.146Z,16.68
2019-06-26T21:30:14.028Z,16.65
2019-06-26T21:32:40.703Z,16.63
2019-06-26T21:35:07.602Z,16.58
2019-06-26T21:37:34.271Z,16.57
2019-06-26T21:40:01.118Z,16.43
2019-06-26T21:42:27.785Z,16.43
2019-06-26T21:44:54.476Z,16.27
2019-06-26T21:47:21.184Z,16.27
2019-06-26T21:49:47.940Z,16.21
2019-06-26T21:52:14.613Z,16.20
2019-06-26T21:54:41.291Z,16.14
2019-06-26T21:57:26.269Z,16.17
2019-06-26T22:00:13.329Z,16.21
2019-06-26T22:02:58.601Z,16.27
2019-06-26T22:05:27.503Z,16.21
2019-06-26T22:08:05.122Z,16.24
2019-06-26T22:10:36.373Z,16.18
2019-06-26T22:13:03.698Z,16.04
2019-06-26T22:15:31.122Z,16.11
2019-06-26T22:17:58.496Z,16.11
2019-06-26T22:20:25.250Z,16.03
2019-06-26T22:22:52.395Z,15.98
2019-06-26T22:25:19.294Z,15.98
2019-06-26T22:27:46.471Z,15.94
2019-06-26T22:30:13.607Z,15.94
2019-06-26T22:32:40.501Z,15.83
2019-06-26T22:35:07.731Z,15.83
2019-06-26T22:37:35.025Z,15.82
2019-06-26T22:40:03.563Z,15.77
2019-06-26T22:42:30.559Z,15.80
2019-06-26T22:44:57.504Z,15.78
2019-06-26T22:47:24.381Z,15.75
2019-06-26T22:49:51.083Z,15.68
2019-06-26T22:52:18.335Z,15.63
2019-06-26T22:54:45.495Z,15.63
2019-06-26T22:57:12.320Z,15.58
2019-06-26T22:59:39.204Z,15.53
2019-06-26T23:02:06.195Z,15.58
2019-06-26T23:04:32.879Z,15.56
2019-06-26T23:06:59.995Z,15.48
2019-06-26T23:09:27.106Z,15.41
2019-06-26T23:11:54.216Z,15.44
2019-06-26T23:14:21.513Z,15.51
2019-06-26T23:16:48.390Z,15.53
2019-06-26T23:19:15.765Z,15.52
2019-06-26T23:21:42.999Z,15.52
2019-06-26T23:24:09.677Z,15.53
2019-06-26T23:26:36.346Z,15.50
2019-06-26T23:29:03.173Z,15.42
2019-06-26T23:31:29.846Z,15.34
2019-06-26T23:33:56.514Z,15.28
2019-06-26T23:36:23.214Z,15.33
2019-06-26T23:38:49.892Z,15.22
2019-06-26T23:41:18.041Z,15.23
2019-06-26T23:43:44.945Z,15.10
2019-06-26T23:46:11.736Z,15.07
2019-06-26T23:48:38.555Z,14.98
2019-06-26T23:51:05.333Z,14.94
2019-06-26T23:53:31.997Z,14.89
2019-06-26T23:55:58.710Z,14.82
2019-06-26T23:58:25.389Z,14.84
